Time;durP1;ratioP1;P1;durP2;ratioP2;P2;SDS_P1;SDS_P2;PMS_P1;PMS_P2;Temp;Humidity;BMP_temperature;BMP_pressure;BME280_temperature;BME280_humidity;BME280_pressure;Samples;Min_cycle;Max_cycle;Signal;HPM_P1;HPM_P2
2022/05/17 00:00:22;;;;;;;;;;;;;;;22.22;33.58;102340.63;2059702;28;1112;-52
2022/05/17 00:01:23;;;;;;;;;;;;;;;22.22;33.66;102340.63;2059117;28;896;-52
2022/05/17 00:02:23;;;;;;;;;;;;;;;22.21;33.45;102333.44;2059080;28;887;-53
2022/05/17 00:03:23;;;;;;;;;;;;;;;22.18;33.20;102338.91;2059772;28;902;-52
2022/05/17 00:04:23;;;;;;;;;;;;;;;22.18;33.55;102339.78;2059662;28;970;-53
2022/05/17 00:05:24;;;;;;;;;;;;;;;22.19;33.18;102337.97;2059641;28;777;-52
2022/05/17 00:06:26;;;;;;;;;;;;;;;22.18;33.27;102339.78;2059602;28;978;-53
2022/05/17 00:07:26;;;;;;;;;;;;;;;22.19;33.39;102335.28;2059643;28;800;-53
2022/05/17 00:08:26;;;;;;;;;;;;;;;22.19;33.50;102337.97;2059771;28;792;-52
2022/05/17 00:09:26;;;;;;;;;;;;;;;22.17;33.76;102339.81;2059628;28;986;-53
2022/05/17 00:10:27;;;;;;;;;;;;;;;22.18;33.29;102338.91;2059541;28;1030;-52
2022/05/17 00:11:28;;;;;;;;;;;;;;;22.18;33.75;102344.31;2059608;28;994;-52
2022/05/17 00:12:28;;;;;;;;;;;;;;;22.17;33.29;102338.00;2059644;28;828;-52
2022/05/17 00:13:28;;;;;;;;;;;;;;;22.17;34.02;102340.69;2059596;28;986;-52
2022/05/17 00:14:28;;;;;;;;;;;;;;;22.17;33.76;102343.38;2059606;28;842;-53
2022/05/17 00:15:28;;;;;;;;;;;;;;;22.17;33.26;102342.50;2059549;28;1033;-53
2022/05/17 00:16:29;;;;;;;;;;;;;;;22.16;33.69;102344.31;2058832;28;1969;-52
2022/05/17 00:17:29;;;;;;;;;;;;;;;22.16;33.35;102344.31;2058958;28;1041;-52
2022/05/17 00:18:29;;;;;;;;;;;;;;;22.16;33.47;102344.31;2059554;28;911;-54
2022/05/17 00:19:30;;;;;;;;;;;;;;;22.16;34.01;102348.84;2059549;28;964;-53
2022/05/17 00:20:30;;;;;;;;;;;;;;;22.15;33.45;102350.63;2059545;28;805;-52
2022/05/17 00:21:30;;;;;;;;;;;;;;;22.15;33.27;102350.63;2059580;28;1010;-52
2022/05/17 00:22:30;;;;;;;;;;;;;;;22.17;33.40;102347.91;2059454;28;789;-52
2022/05/17 00:23:31;;;;;;;;;;;;;;;22.16;33.40;102348.84;2059506;28;919;-52
2022/05/17 00:24:31;;;;;;;;;;;;;;;22.16;34.15;102349.69;2059489;28;1084;-52
2022/05/17 00:25:31;;;;;;;;;;;;;;;22.17;33.47;102354.19;2058380;28;856;-52
2022/05/17 00:26:34;;;;;;;;;;;;;;;22.16;33.30;102348.84;2059524;28;836;-52
2022/05/17 00:27:34;;;;;;;;;;;;;;;22.16;34.17;102355.09;2059273;28;1159;-52
2022/05/17 00:28:35;;;;;;;;;;;;;;;22.14;33.34;102350.66;2059522;28;831;-52
2022/05/17 00:29:36;;;;;;;;;;;;;;;22.13;34.25;102348.88;2059483;28;828;-52
2022/05/17 00:30:36;;;;;;;;;;;;;;;22.14;33.62;102347.97;2059505;28;855;-52
2022/05/17 00:31:36;;;;;;;;;;;;;;;22.14;33.41;102350.66;2059448;28;796;-53
2022/05/17 00:32:36;;;;;;;;;;;;;;;22.13;34.04;102352.44;2059429;28;1064;-52
2022/05/17 00:33:37;;;;;;;;;;;;;;;22.14;33.35;102353.34;2059499;28;839;-52
2022/05/17 00:34:37;;;;;;;;;;;;;;;22.13;33.77;102354.28;2059362;28;800;-52
2022/05/17 00:35:38;;;;;;;;;;;;;;;22.13;34.27;102355.16;2059438;28;851;-52
2022/05/17 00:36:38;;;;;;;;;;;;;;;22.13;34.31;102354.28;2059357;28;1974;-52
2022/05/17 00:37:38;;;;;;;;;;;;;;;22.12;34.28;102350.66;2059328;28;1291;-52
2022/05/17 00:38:38;;;;;;;;;;;;;;;22.14;33.66;102356.06;2059446;28;765;-52
2022/05/17 00:39:39;;;;;;;;;;;;;;;22.13;34.18;102351.56;2059360;28;1049;-53
2022/05/17 00:40:40;;;;;;;;;;;;;;;22.12;33.36;102349.78;2059343;28;1103;-52
2022/05/17 00:41:40;;;;;;;;;;;;;;;22.13;34.19;102351.56;2059492;28;734;-53
2022/05/17 00:42:40;;;;;;;;;;;;;;;22.13;34.29;102348.88;2059364;28;781;-52
2022/05/17 00:44:59;;;;;;;;;;;;;;;22.12;33.56;102352.50;2059346;28;615;-52
2022/05/17 00:46:01;;;;;;;;;;;;;;;22.13;33.61;102356.97;2059358;28;1010;-53
2022/05/17 00:47:04;;;;;;;;;;;;;;;22.12;33.71;102349.78;2059284;28;907;-52
2022/05/17 00:48:04;;;;;;;;;;;;;;;22.12;34.22;102347.97;2058682;28;1269;-52
2022/05/17 00:49:08;;;;;;;;;;;;;;;22.12;34.24;102358.75;2058693;28;995;-52
2022/05/17 00:50:08;;;;;;;;;;;;;;;22.11;33.64;102356.97;2059250;28;804;-52
2022/05/17 00:51:09;;;;;;;;;;;;;;;22.12;34.02;102361.47;2059375;28;839;-53
2022/05/17 00:52:12;;;;;;;;;;;;;;;22.11;33.90;102354.28;2059339;28;777;-53
2022/05/17 00:53:18;;;;;;;;;;;;;;;22.11;33.88;102358.81;2059293;28;851;-53
2022/05/17 00:54:18;;;;;;;;;;;;;;;22.10;33.80;102354.31;2059248;28;987;-52
2022/05/17 00:55:18;;;;;;;;;;;;;;;22.10;33.90;102354.31;2059231;28;915;-52
2022/05/17 00:56:21;;;;;;;;;;;;;;;22.11;34.16;102356.09;2059243;28;1953;-53
2022/05/17 00:57:21;;;;;;;;;;;;;;;22.10;33.76;102357.03;2059219;28;859;-52
2022/05/17 00:58:30;;;;;;;;;;;;;;;22.11;34.19;102356.09;2059171;28;1245;-52
2022/05/17 00:59:30;;;;;;;;;;;;;;;22.10;33.71;102359.72;2059240;28;891;-52
2022/05/17 01:00:35;;;;;;;;;;;;;;;22.10;33.80;102363.28;2059201;28;789;-52
2022/05/17 01:01:36;;;;;;;;;;;;;;;22.10;33.69;102360.59;2059278;28;994;-53
2022/05/17 01:02:37;;;;;;;;;;;;;;;22.10;33.54;102360.59;2059237;28;788;-52
2022/05/17 01:03:46;;;;;;;;;;;;;;;22.09;33.50;102353.41;2059334;28;835;-53
2022/05/17 01:04:47;;;;;;;;;;;;;;;22.09;33.65;102364.22;2059246;28;788;-52
2022/05/17 01:05:50;;;;;;;;;;;;;;;22.08;33.56;102359.72;2059156;28;963;-52
2022/05/17 01:07:00;;;;;;;;;;;;;;;22.09;34.14;102360.63;2059139;28;1050;-53
2022/05/17 01:08:01;;;;;;;;;;;;;;;22.08;33.46;102359.72;2059183;28;1022;-52
2022/05/17 01:09:01;;;;;;;;;;;;;;;22.09;34.50;102360.63;2059195;28;816;-52
2022/05/17 01:10:02;;;;;;;;;;;;;;;22.09;33.87;102363.34;2059109;28;875;-52
2022/05/17 01:11:02;;;;;;;;;;;;;;;22.08;34.43;102353.47;2059135;28;1021;-53
2022/05/17 01:12:02;;;;;;;;;;;;;;;22.06;33.67;102354.38;2059111;28;1002;-52
2022/05/17 01:15:40;;;;;;;;;;;;;;;22.07;33.67;102360.69;2059228;28;678;-52
2022/05/17 01:16:41;;;;;;;;;;;;;;;22.06;33.58;102354.38;2059194;28;1894;-52
2022/05/17 01:17:41;;;;;;;;;;;;;;;22.05;34.38;102355.28;2059133;28;772;-52
2022/05/17 01:18:42;;;;;;;;;;;;;;;22.08;34.06;102353.47;2059129;28;986;-53
2022/05/17 01:19:43;;;;;;;;;;;;;;;22.08;34.26;102358.84;2059040;28;1044;-52
2022/05/17 01:20:43;;;;;;;;;;;;;;;22.06;34.53;102353.50;2058987;28;1591;-52
2022/05/17 01:21:44;;;;;;;;;;;;;;;22.07;33.86;102355.28;2059016;28;986;-52
2022/05/17 01:22:44;;;;;;;;;;;;;;;22.07;34.14;102355.28;2059055;28;916;-52
2022/05/17 01:23:44;;;;;;;;;;;;;;;22.05;34.46;102357.97;2059093;28;838;-52
2022/05/17 01:24:44;;;;;;;;;;;;;;;22.04;33.87;102353.50;2059038;28;827;-53
2022/05/17 01:25:44;;;;;;;;;;;;;;;22.03;33.65;102354.41;2059037;28;998;-53
2022/05/17 01:26:49;;;;;;;;;;;;;;;22.04;33.60;102353.50;2059014;28;1014;-53
2022/05/17 01:27:53;;;;;;;;;;;;;;;22.03;34.47;102359.81;2058935;28;1123;-52
2022/05/17 01:28:54;;;;;;;;;;;;;;;22.04;34.07;102353.50;2059122;28;879;-52
2022/05/17 01:29:55;;;;;;;;;;;;;;;22.05;33.90;102357.09;2058995;28;982;-52
2022/05/17 01:31:03;;;;;;;;;;;;;;;22.04;33.76;102353.50;2059005;28;777;-52
2022/05/17 01:32:04;;;;;;;;;;;;;;;22.03;33.71;102354.41;2059033;28;875;-52
2022/05/17 01:33:04;;;;;;;;;;;;;;;22.04;34.00;102355.31;2058998;28;784;-52
2022/05/17 01:34:06;;;;;;;;;;;;;;;22.03;33.73;102357.13;2058986;28;847;-52
2022/05/17 01:35:06;;;;;;;;;;;;;;;22.04;33.96;102355.31;2058985;28;809;-53
2022/05/17 01:36:08;;;;;;;;;;;;;;;22.03;34.54;102351.72;2059023;28;819;-52
2022/05/17 01:37:08;;;;;;;;;;;;;;;22.05;33.77;102357.97;2058606;28;1914;-52
2022/05/17 01:38:09;;;;;;;;;;;;;;;22.04;33.68;102358.91;2059061;28;1044;-53
2022/05/17 01:39:09;;;;;;;;;;;;;;;22.04;33.76;102352.63;2058924;28;999;-52
2022/05/17 01:40:10;;;;;;;;;;;;;;;22.05;34.50;102357.09;2058950;28;1005;-53
2022/05/17 01:41:10;;;;;;;;;;;;;;;22.04;33.76;102361.59;2058903;28;891;-52
2022/05/17 01:42:11;;;;;;;;;;;;;;;22.05;33.71;102357.97;2058884;28;1057;-52
2022/05/17 01:43:11;;;;;;;;;;;;;;;22.05;33.82;102359.81;2059046;28;804;-52
2022/05/17 01:44:11;;;;;;;;;;;;;;;22.05;33.85;102362.50;2058914;28;1029;-52
2022/05/17 01:45:12;;;;;;;;;;;;;;;22.04;33.75;102361.59;2058937;28;796;-53
2022/05/17 01:46:12;;;;;;;;;;;;;;;22.03;33.88;102359.81;2058855;28;820;-52
2022/05/17 01:47:13;;;;;;;;;;;;;;;22.04;33.95;102361.59;2058888;28;852;-52
2022/05/17 01:48:13;;;;;;;;;;;;;;;22.04;33.87;102360.72;2058895;28;827;-52
2022/05/17 01:49:13;;;;;;;;;;;;;;;22.03;33.88;102367.03;2058872;28;930;-52
2022/05/17 01:50:13;;;;;;;;;;;;;;;22.02;34.68;102358.03;2058875;28;1045;-53
2022/05/17 01:51:14;;;;;;;;;;;;;;;22.02;34.11;102359.84;2058853;28;808;-52
2022/05/17 01:52:14;;;;;;;;;;;;;;;22.03;34.70;102373.31;2058815;28;1041;-52
2022/05/17 01:53:14;;;;;;;;;;;;;;;22.03;33.83;102367.91;2058166;28;851;-52
2022/05/17 01:54:14;;;;;;;;;;;;;;;22.03;34.67;102365.22;2058183;28;883;-53
2022/05/17 01:55:14;;;;;;;;;;;;;;;22.03;34.47;102361.63;2058813;28;906;-52
2022/05/17 01:56:15;;;;;;;;;;;;;;;22.04;34.00;102363.41;2058865;28;1948;-52
2022/05/17 01:57:15;;;;;;;;;;;;;;;22.03;34.24;102364.34;2058818;28;785;-53
2022/05/17 01:58:15;;;;;;;;;;;;;;;22.02;33.82;102365.25;2058922;28;780;-52
2022/05/17 01:59:16;;;;;;;;;;;;;;;22.03;34.79;102364.34;2058874;28;888;-53
2022/05/17 02:00:17;;;;;;;;;;;;;;;22.03;33.98;102372.44;2058834;28;796;-53
2022/05/17 02:01:17;;;;;;;;;;;;;;;22.01;33.95;102367.03;2058799;28;801;-52
2022/05/17 02:02:17;;;;;;;;;;;;;;;22.02;34.02;102367.94;2059051;28;721;-53
2022/05/17 02:03:18;;;;;;;;;;;;;;;22.02;33.93;102359.84;2058739;28;808;-52
2022/05/17 02:04:18;;;;;;;;;;;;;;;22.01;34.23;102364.34;2058777;28;927;-53
2022/05/17 02:05:20;;;;;;;;;;;;;;;22.00;33.97;102367.97;2058810;28;780;-53
2022/05/17 02:06:20;;;;;;;;;;;;;;;22.02;34.69;102367.94;2058773;28;871;-52
2022/05/17 02:07:20;;;;;;;;;;;;;;;22.02;34.11;102365.25;2058743;28;805;-53
2022/05/17 02:08:20;;;;;;;;;;;;;;;22.02;33.89;102367.94;2058678;28;1042;-52
2022/05/17 02:09:20;;;;;;;;;;;;;;;22.01;34.09;102369.75;2058729;28;1049;-52
2022/05/17 02:10:25;;;;;;;;;;;;;;;22.01;33.97;102366.16;2058751;28;1007;-53
2022/05/17 02:11:25;;;;;;;;;;;;;;;22.00;33.97;102367.97;2058739;28;860;-52
2022/05/17 02:12:25;;;;;;;;;;;;;;;22.01;34.11;102364.34;2058699;28;784;-53
2022/05/17 02:13:26;;;;;;;;;;;;;;;22.01;34.61;102372.44;2058681;28;724;-52
2022/05/17 02:14:26;;;;;;;;;;;;;;;22.02;34.33;102373.34;2058742;28;777;-52
2022/05/17 02:15:26;;;;;;;;;;;;;;;22.01;34.48;102371.56;2058709;28;840;-52
2022/05/17 02:16:26;;;;;;;;;;;;;;;22.01;34.09;102368.88;2058623;28;1907;-52
2022/05/17 02:17:26;;;;;;;;;;;;;;;22.01;34.82;102368.88;2058701;28;864;-52
2022/05/17 02:18:27;;;;;;;;;;;;;;;22.00;34.33;102376.06;2058674;28;978;-53
2022/05/17 02:19:29;;;;;;;;;;;;;;;22.00;34.39;102370.66;2058714;28;824;-52
2022/05/17 02:20:30;;;;;;;;;;;;;;;22.00;34.90;102369.78;2058729;28;867;-53
2022/05/17 02:21:30;;;;;;;;;;;;;;;21.99;34.42;102378.78;2058667;28;903;-52
2022/05/17 02:22:30;;;;;;;;;;;;;;;22.00;34.16;102378.75;2058648;28;915;-52
2022/05/17 02:23:31;;;;;;;;;;;;;;;21.99;34.21;102374.28;2058655;28;994;-52
2022/05/17 02:24:31;;;;;;;;;;;;;;;21.99;34.31;102381.50;2058638;28;895;-52
2022/05/17 02:25:31;;;;;;;;;;;;;;;22.00;34.46;102375.19;2058594;28;994;-53
2022/05/17 02:26:32;;;;;;;;;;;;;;;21.99;34.28;102379.66;2058702;28;839;-52
2022/05/17 02:27:32;;;;;;;;;;;;;;;21.99;34.63;102379.66;2058463;28;1025;-52
2022/05/17 02:28:32;;;;;;;;;;;;;;;22.00;34.08;102388.66;2058695;28;875;-53
2022/05/17 02:29:34;;;;;;;;;;;;;;;22.00;34.97;102392.25;2058102;28;1083;-52
2022/05/17 02:30:35;;;;;;;;;;;;;;;21.99;34.91;102385.06;2057993;28;920;-53
2022/05/17 02:31:35;;;;;;;;;;;;;;;21.99;34.03;102386.88;2058765;28;820;-52
2022/05/17 02:32:35;;;;;;;;;;;;;;;22.00;34.38;102385.97;2058616;28;856;-52
2022/05/17 02:33:35;;;;;;;;;;;;;;;21.99;34.21;102387.75;2058597;28;994;-52
2022/05/17 02:34:36;;;;;;;;;;;;;;;21.99;34.42;102382.38;2058614;28;998;-52
2022/05/17 02:35:37;;;;;;;;;;;;;;;21.98;34.39;102383.28;2058601;28;642;-52
2022/05/17 02:36:37;;;;;;;;;;;;;;;21.98;34.47;102383.28;2058576;28;1914;-52
2022/05/17 02:37:37;;;;;;;;;;;;;;;21.98;34.12;102383.28;2057832;28;1220;-52
2022/05/17 02:38:37;;;;;;;;;;;;;;;21.98;34.21;102388.66;2057993;28;777;-52
2022/05/17 02:39:37;;;;;;;;;;;;;;;21.98;34.06;102388.66;2058577;28;916;-52
2022/05/17 02:40:37;;;;;;;;;;;;;;;21.98;34.18;102388.66;2058548;28;1061;-52
2022/05/17 02:41:38;;;;;;;;;;;;;;;22.00;34.30;102394.06;2058600;28;844;-52
2022/05/17 02:42:38;;;;;;;;;;;;;;;21.98;35.00;102388.66;2058552;28;773;-52
2022/05/17 02:43:38;;;;;;;;;;;;;;;21.98;34.24;102388.66;2058613;28;820;-52
2022/05/17 02:44:39;;;;;;;;;;;;;;;21.99;34.62;102389.59;2058545;28;931;-52
2022/05/17 02:45:39;;;;;;;;;;;;;;;21.98;34.32;102385.97;2058542;28;1079;-52
2022/05/17 02:46:39;;;;;;;;;;;;;;;21.98;34.20;102394.06;2058539;28;786;-52
2022/05/17 02:47:40;;;;;;;;;;;;;;;21.98;35.00;102391.38;2058525;28;867;-53
2022/05/17 02:48:40;;;;;;;;;;;;;;;21.98;34.53;102391.38;2058866;28;974;-52
2022/05/17 02:49:44;;;;;;;;;;;;;;;21.98;34.96;102394.06;2060217;28;872;-52
2022/05/17 02:50:44;;;;;;;;;;;;;;;21.98;34.71;102398.59;2060185;28;852;-53
2022/05/17 02:51:45;;;;;;;;;;;;;;;21.99;34.19;102400.38;2060225;28;816;-53
2022/05/17 02:52:45;;;;;;;;;;;;;;;21.98;34.34;102393.19;2060034;28;808;-52
2022/05/17 02:53:46;;;;;;;;;;;;;;;21.97;34.25;102397.69;2060198;28;907;-53
2022/05/17 02:54:46;;;;;;;;;;;;;;;21.97;35.02;102400.38;2060180;28;892;-52
2022/05/17 02:55:46;;;;;;;;;;;;;;;21.98;34.26;102404.00;2060195;28;864;-53
2022/05/17 02:56:46;;;;;;;;;;;;;;;21.97;34.93;102400.38;2060190;28;1898;-52
2022/05/17 02:57:46;;;;;;;;;;;;;;;21.98;34.54;102404.00;2060157;28;876;-52
2022/05/17 02:58:47;;;;;;;;;;;;;;;21.98;34.20;102398.59;2060177;28;840;-53
2022/05/17 02:59:47;;;;;;;;;;;;;;;21.98;35.13;102402.16;2059405;28;844;-52
2022/05/17 03:00:47;;;;;;;;;;;;;;;21.98;34.96;102398.59;2059544;28;971;-53
2022/05/17 03:01:47;;;;;;;;;;;;;;;21.97;34.29;102400.38;2060097;28;975;-52
2022/05/17 03:02:47;;;;;;;;;;;;;;;21.96;34.24;102406.69;2060137;28;843;-52
2022/05/17 03:03:48;;;;;;;;;;;;;;;21.97;34.52;102400.38;2060104;28;859;-52
2022/05/17 03:04:48;;;;;;;;;;;;;;;21.96;34.46;102403.13;2060086;28;801;-53
2022/05/17 03:05:48;;;;;;;;;;;;;;;21.96;34.75;102404.00;2060118;28;685;-53
2022/05/17 03:06:48;;;;;;;;;;;;;;;21.97;34.27;102413.00;2060195;28;892;-52
2022/05/17 03:07:48;;;;;;;;;;;;;;;21.97;34.93;102403.06;2060076;28;801;-52
2022/05/17 03:08:49;;;;;;;;;;;;;;;21.98;34.35;102404.00;2060217;28;740;-52
2022/05/17 03:09:49;;;;;;;;;;;;;;;21.97;34.97;102404.91;2060049;28;855;-53
2022/05/17 03:10:49;;;;;;;;;;;;;;;21.96;34.39;102400.41;2060101;28;1049;-52
2022/05/17 03:11:49;;;;;;;;;;;;;;;21.96;35.01;102390.50;2060045;28;1052;-53
2022/05/17 03:12:50;;;;;;;;;;;;;;;21.97;34.45;102397.69;2060143;28;859;-52
2022/05/17 03:13:50;;;;;;;;;;;;;;;21.96;35.04;102393.19;2060061;28;812;-52
2022/05/17 03:14:50;;;;;;;;;;;;;;;21.95;34.83;102393.25;2060029;28;847;-52
2022/05/17 03:15:51;;;;;;;;;;;;;;;21.96;34.43;102397.72;2060057;28;734;-52
2022/05/17 03:16:51;;;;;;;;;;;;;;;21.96;34.44;102395.03;2059927;28;1891;-52
2022/05/17 03:17:51;;;;;;;;;;;;;;;21.96;35.01;102387.81;2060035;28;851;-52
2022/05/17 03:18:51;;;;;;;;;;;;;;;21.96;34.64;102392.31;2060016;28;1111;-52
2022/05/17 03:19:54;;;;;;;;;;;;;;;21.95;34.42;102396.81;2060004;28;1041;-52
2022/05/17 03:20:54;;;;;;;;;;;;;;;21.97;35.15;102402.19;2060120;28;817;-52
2022/05/17 03:21:55;;;;;;;;;;;;;;;21.96;34.64;102395.03;2059933;28;994;-52
2022/05/17 03:22:55;;;;;;;;;;;;;;;21.96;35.11;102404.00;2059965;28;812;-53
2022/05/17 03:23:55;;;;;;;;;;;;;;;21.95;34.89;102398.63;2059960;28;793;-52
2022/05/17 03:24:55;;;;;;;;;;;;;;;21.95;34.51;102391.41;2059980;28;883;-52
2022/05/17 03:25:55;;;;;;;;;;;;;;;21.95;34.97;102396.81;2059947;28;828;-52
2022/05/17 03:26:56;;;;;;;;;;;;;;;21.95;34.28;102399.50;2059957;28;978;-52
2022/05/17 03:27:56;;;;;;;;;;;;;;;21.95;35.11;102399.50;2059807;28;1224;-52
2022/05/17 03:28:58;;;;;;;;;;;;;;;21.95;34.69;102402.22;2059282;28;848;-52
2022/05/17 03:29:58;;;;;;;;;;;;;;;21.95;35.04;102399.50;2059333;28;797;-52
2022/05/17 03:30:58;;;;;;;;;;;;;;;21.94;34.54;102403.13;2059927;28;990;-52
2022/05/17 03:31:59;;;;;;;;;;;;;;;21.94;34.43;102392.31;2059937;28;1025;-52
2022/05/17 03:32:59;;;;;;;;;;;;;;;21.95;34.69;102399.50;2059900;28;754;-52
2022/05/17 03:33:59;;;;;;;;;;;;;;;21.96;35.00;102404.00;2059900;28;796;-52
2022/05/17 03:34:59;;;;;;;;;;;;;;;21.95;34.26;102410.31;2059878;28;970;-52
2022/05/17 03:35:59;;;;;;;;;;;;;;;21.94;34.98;102391.44;2059893;28;970;-52
2022/05/17 03:36:59;;;;;;;;;;;;;;;21.95;34.42;102396.81;2059833;28;1922;-52
2022/05/17 03:38:00;;;;;;;;;;;;;;;21.94;34.34;102396.84;2059848;28;848;-52
2022/05/17 03:39:00;;;;;;;;;;;;;;;21.93;34.21;102406.72;2059869;28;864;-52
2022/05/17 03:40:00;;;;;;;;;;;;;;;21.93;34.20;102404.03;2059871;28;994;-52
2022/05/17 03:41:00;;;;;;;;;;;;;;;21.94;34.56;102402.25;2059823;28;887;-52
2022/05/17 03:42:00;;;;;;;;;;;;;;;21.93;34.23;102398.63;2059873;28;911;-53
2022/05/17 03:43:01;;;;;;;;;;;;;;;21.94;34.70;102403.13;2059124;28;962;-52
2022/05/17 03:44:01;;;;;;;;;;;;;;;21.94;35.09;102405.81;2059263;28;777;-52
2022/05/17 03:45:02;;;;;;;;;;;;;;;21.94;34.29;102404.94;2059780;28;990;-52
2022/05/17 03:46:02;;;;;;;;;;;;;;;21.94;34.48;102411.22;2059078;28;1081;-52
2022/05/17 03:47:04;;;;;;;;;;;;;;;21.93;34.19;102401.34;2059203;28;895;-52
2022/05/17 03:48:04;;;;;;;;;;;;;;;21.94;34.94;102408.50;2059795;28;836;-52
2022/05/17 03:49:04;;;;;;;;;;;;;;;21.94;34.33;102408.50;2059677;28;1182;-52
2022/05/17 03:50:05;;;;;;;;;;;;;;;21.94;34.55;102413.91;2059816;28;796;-52
2022/05/17 03:51:12;;;;;;;;;;;;;;;21.94;34.21;102415.72;2059716;28;1441;-52
2022/05/17 03:52:12;;;;;;;;;;;;;;;21.95;34.69;102420.22;2059745;28;840;-52
2022/05/17 03:53:13;;;;;;;;;;;;;;;21.95;34.40;102417.53;2059744;28;843;-52
2022/05/17 03:54:17;;;;;;;;;;;;;;;21.95;35.00;102420.22;2059751;28;954;-52
2022/05/17 03:55:18;;;;;;;;;;;;;;;21.95;34.12;102420.22;2059834;28;911;-53
2022/05/17 03:56:18;;;;;;;;;;;;;;;21.94;34.29;102424.72;2059643;28;1882;-52
2022/05/17 03:57:18;;;;;;;;;;;;;;;21.94;34.20;102424.72;2059852;28;776;-52
2022/05/17 03:58:18;;;;;;;;;;;;;;;21.95;34.16;102420.22;2059698;28;879;-53
2022/05/17 03:59:18;;;;;;;;;;;;;;;21.94;34.99;102423.84;2059711;28;809;-52
2022/05/17 04:00:19;;;;;;;;;;;;;;;21.95;34.46;102420.22;2059577;28;828;-53
2022/05/17 04:01:19;;;;;;;;;;;;;;;22.12;34.28;102428.94;2059813;28;872;-53
2022/05/17 04:02:20;;;;;;;;;;;;;;;23.08;32.20;102421.06;2058992;28;1010;-52
2022/05/17 04:03:20;;;;;;;;;;;;;;;23.72;31.65;102422.50;2059109;28;998;-52
2022/05/17 04:04:20;;;;;;;;;;;;;;;24.17;31.08;102421.50;2059670;28;1061;-52
2022/05/17 04:05:20;;;;;;;;;;;;;;;24.45;30.72;102416.28;2059770;28;773;-51
2022/05/17 04:06:21;;;;;;;;;;;;;;;24.74;29.27;102419.22;2059628;28;855;-52
2022/05/17 04:07:22;;;;;;;;;;;;;;;24.99;29.65;102420.34;2059643;28;827;-52
2022/05/17 04:08:22;;;;;;;;;;;;;;;25.17;29.05;102418.94;2058940;28;1186;-52
2022/05/17 04:09:23;;;;;;;;;;;;;;;25.31;28.49;102415.84;2059046;28;1053;-52
2022/05/17 04:10:23;;;;;;;;;;;;;;;25.62;28.04;102415.88;2059545;28;761;-51
2022/05/17 04:11:24;;;;;;;;;;;;;;;25.79;27.50;102416.25;2059557;28;1179;-52
2022/05/17 04:12:24;;;;;;;;;;;;;;;25.71;27.84;102423.75;2059611;28;785;-52
2022/05/17 04:13:26;;;;;;;;;;;;;;;25.98;27.08;102427.44;2059585;28;737;-52
2022/05/17 04:14:26;;;;;;;;;;;;;;;26.30;26.98;102421.94;2059576;28;816;-51
2022/05/17 04:15:26;;;;;;;;;;;;;;;26.26;26.76;102399.38;2059599;28;827;-51
2022/05/17 04:16:29;;;;;;;;;;;;;;;26.40;26.71;102420.69;2059498;28;1963;-51
2022/05/17 04:17:30;;;;;;;;;;;;;;;26.54;26.31;102422.00;2059517;28;879;-51
2022/05/17 04:18:30;;;;;;;;;;;;;;;26.75;25.88;102418.56;2059596;28;1001;-52
2022/05/17 04:19:30;;;;;;;;;;;;;;;26.71;26.52;102416.91;2059585;28;1017;-52
2022/05/17 04:20:31;;;;;;;;;;;;;;;26.57;26.65;102424.63;2059581;28;840;-52
2022/05/17 04:21:31;;;;;;;;;;;;;;;26.67;26.11;102428.81;2059447;28;781;-51
2022/05/17 04:22:31;;;;;;;;;;;;;;;26.69;26.03;102432.38;2059479;28;1026;-51
2022/05/17 04:23:32;;;;;;;;;;;;;;;26.79;25.81;102419.34;2059522;28;828;-52
2022/05/17 04:24:32;;;;;;;;;;;;;;;26.83;25.81;102426.47;2059628;28;907;-51
2022/05/17 04:25:32;;;;;;;;;;;;;;;27.21;25.21;102418.78;2059462;28;781;-52
2022/05/17 04:26:33;;;;;;;;;;;;;;;27.32;25.06;102423.81;2059456;28;859;-52
2022/05/17 04:27:33;;;;;;;;;;;;;;;27.19;25.43;102427.91;2059358;28;1226;-51
2022/05/17 04:28:33;;;;;;;;;;;;;;;27.16;25.52;102428.03;2059482;28;978;-52
2022/05/17 04:29:33;;;;;;;;;;;;;;;27.35;25.15;102426.41;2059475;28;994;-52
2022/05/17 04:30:33;;;;;;;;;;;;;;;27.66;24.79;102425.28;2059450;28;934;-52
2022/05/17 04:31:34;;;;;;;;;;;;;;;27.66;25.14;102421.66;2059447;28;1025;-53
2022/05/17 04:32:34;;;;;;;;;;;;;;;27.52;24.74;102439.41;2058782;28;1194;-52
2022/05/17 04:33:34;;;;;;;;;;;;;;;27.49;25.22;102430.47;2058832;28;851;-52
2022/05/17 04:34:34;;;;;;;;;;;;;;;27.42;25.03;102434.34;2059486;28;749;-51
2022/05/17 04:35:35;;;;;;;;;;;;;;;27.45;25.55;102436.94;2059439;28;907;-52
2022/05/17 04:36:35;;;;;;;;;;;;;;;27.37;25.18;102427.25;2059365;28;1915;-52
2022/05/17 04:37:36;;;;;;;;;;;;;;;27.65;25.32;102428.03;2059367;28;1291;-52
2022/05/17 04:38:36;;;;;;;;;;;;;;;27.88;24.37;102429.84;2059398;28;906;-52
2022/05/17 04:39:37;;;;;;;;;;;;;;;27.91;24.41;102421.56;2059385;28;789;-52
2022/05/17 04:40:37;;;;;;;;;;;;;;;27.90;24.23;102432.53;2059404;28;781;-52
2022/05/17 04:41:37;;;;;;;;;;;;;;;28.14;24.43;102433.41;2059353;28;880;-52
2022/05/17 04:42:38;;;;;;;;;;;;;;;28.13;23.88;102434.34;2059428;28;991;-52
2022/05/17 04:43:38;;;;;;;;;;;;;;;28.17;23.88;102441.44;2059268;28;1240;-51
2022/05/17 04:44:38;;;;;;;;;;;;;;;28.05;24.40;102431.03;2059481;28;871;-52
2022/05/17 04:45:39;;;;;;;;;;;;;;;27.98;24.71;102435.81;2059370;28;910;-52
2022/05/17 04:46:39;;;;;;;;;;;;;;;28.15;24.54;102442.44;2058649;28;1410;-52
2022/05/17 04:47:40;;;;;;;;;;;;;;;28.22;23.93;102436.69;2058747;28;1057;-52
2022/05/17 04:48:40;;;;;;;;;;;;;;;28.19;23.91;102441.38;2059301;28;785;-52
2022/05/17 04:49:40;;;;;;;;;;;;;;;28.07;24.49;102446.34;2059355;28;916;-52
2022/05/17 04:50:40;;;;;;;;;;;;;;;28.00;24.42;102443.94;2059325;28;1025;-52
2022/05/17 04:51:41;;;;;;;;;;;;;;;28.31;24.30;102440.88;2059345;28;789;-52
2022/05/17 04:52:41;;;;;;;;;;;;;;;28.35;24.04;102439.78;2058638;28;801;-52
2022/05/17 04:53:42;;;;;;;;;;;;;;;28.55;24.10;102444.41;2058794;28;765;-52
2022/05/17 04:54:43;;;;;;;;;;;;;;;28.42;23.76;102445.00;2058598;28;1207;-53
2022/05/17 04:55:43;;;;;;;;;;;;;;;28.36;23.70;102446.13;2058673;28;928;-52
2022/05/17 04:56:44;;;;;;;;;;;;;;;28.38;23.68;102446.94;2059281;28;1894;-52
2022/05/17 04:57:44;;;;;;;;;;;;;;;28.51;23.93;102450.06;2059244;28;982;-52
2022/05/17 04:58:44;;;;;;;;;;;;;;;28.72;24.01;102450.97;2059206;28;800;-52
2022/05/17 04:59:44;;;;;;;;;;;;;;;28.77;23.16;102446.25;2059282;28;907;-52
2022/05/17 05:00:44;;;;;;;;;;;;;;;28.42;23.93;102445.88;2059205;28;962;-52
2022/05/17 05:01:44;;;;;;;;;;;;;;;28.34;24.30;102446.19;2059467;28;760;-54
2022/05/17 05:02:45;;;;;;;;;;;;;;;28.38;24.13;102446.94;2059253;28;970;-53
2022/05/17 05:03:45;;;;;;;;;;;;;;;28.52;23.90;102449.97;2059207;28;808;-54
2022/05/17 05:04:45;;;;;;;;;;;;;;;28.75;23.54;102445.38;2059231;28;982;-53
2022/05/17 05:05:45;;;;;;;;;;;;;;;28.85;23.42;102443.16;2059161;28;993;-52
2022/05/17 05:06:45;;;;;;;;;;;;;;;28.72;23.95;102450.97;2059205;28;677;-53
2022/05/17 05:07:45;;;;;;;;;;;;;;;28.77;23.47;102456.25;2059188;28;875;-52
2022/05/17 05:08:45;;;;;;;;;;;;;;;28.85;23.46;102446.75;2059134;28;978;-52
2022/05/17 05:09:46;;;;;;;;;;;;;;;28.91;23.09;102450.19;2059180;28;1048;-53
2022/05/17 05:10:46;;;;;;;;;;;;;;;28.68;23.55;102441.16;2058421;28;2251;-53
2022/05/17 05:11:46;;;;;;;;;;;;;;;28.68;23.67;102439.28;2058023;28;836;-52
2022/05/17 05:12:46;;;;;;;;;;;;;;;28.70;23.68;102447.41;2059129;28;1014;-52
2022/05/17 05:13:47;;;;;;;;;;;;;;;28.76;23.41;102449.00;2059152;28;865;-53
2022/05/17 05:14:47;;;;;;;;;;;;;;;28.89;23.26;102452.09;2059165;28;966;-52
2022/05/17 05:15:47;;;;;;;;;;;;;;;28.61;23.44;102434.19;2059131;28;823;-53
2022/05/17 05:16:48;;;;;;;;;;;;;;;28.81;23.84;102439.69;2059069;28;1987;-53
2022/05/17 05:17:48;;;;;;;;;;;;;;;28.99;23.65;102431.63;2059086;28;922;-52
2022/05/17 05:18:49;;;;;;;;;;;;;;;28.86;23.52;102439.47;2059081;28;1065;-52
2022/05/17 05:19:50;;;;;;;;;;;;;;;28.63;23.68;102445.91;2059144;28;1085;-52
2022/05/17 05:20:50;;;;;;;;;;;;;;;28.86;23.87;102439.47;2059037;28;1056;-53
2022/05/17 05:21:50;;;;;;;;;;;;;;;28.92;23.81;102443.75;2059099;28;760;-53
2022/05/17 05:22:50;;;;;;;;;;;;;;;28.62;23.50;102441.41;2059010;28;998;-52